sensor_id;sensor_type;location;lat;lon;timestamp;pressure;altitude;pressure_sealevel;temperature;humidity
76687;BME280;65615;47.378;19.344;2023-03-01T05:21:16;101146.66;;;4.29;86.49
76687;BME280;65615;47.378;19.344;2023-03-01T05:25:19;101146.66;;;4.29;86.49
76687;BME280;65615;47.378;19.344;2023-03-01T05:29:24;101147.25;;;4.20;86.28
76687;BME280;65615;47.378;19.344;2023-03-01T05:33:28;101146.66;;;4.29;85.15
76687;BME280;65615;47.378;19.344;2023-03-01T05:37:30;101152.28;;;4.09;85.44
76687;BME280;65615;47.378;19.344;2023-03-01T05:41:33;101153.22;;;4.22;84.49
76687;BME280;65615;47.378;19.344;2023-03-01T05:45:37;101156.03;;;4.19;84.87
76687;BME280;65615;47.378;19.344;2023-03-01T05:49:41;101156.00;;;4.33;84.21
76687;BME280;65615;47.378;19.344;2023-03-01T05:53:44;101161.06;;;4.22;83.87
76687;BME280;65615;47.378;19.344;2023-03-01T05:57:47;101167.44;;;4.18;83.25
76687;BME280;65615;47.378;19.344;2023-03-01T06:01:50;101171.16;;;4.28;80.89
76687;BME280;65615;47.378;19.344;2023-03-01T06:05:57;101166.69;;;4.16;80.54
76687;BME280;65615;47.378;19.344;2023-03-01T06:10:00;101173.78;;;4.14;79.48
76687;BME280;65615;47.378;19.344;2023-03-01T06:14:04;101176.66;;;4.09;80.50
76687;BME280;65615;47.378;19.344;2023-03-01T06:18:07;101175.06;;;4.35;80.20
76687;BME280;65615;47.378;19.344;2023-03-01T06:22:10;101176.72;;;4.50;78.93
76687;BME280;65615;47.378;19.344;2023-03-01T06:26:12;101172.81;;;4.43;79.37
76687;BME280;65615;47.378;19.344;2023-03-01T06:30:17;101172.06;;;4.41;79.60
76687;BME280;65615;47.378;19.344;2023-03-01T06:34:20;101160.19;;;4.50;80.75
76687;BME280;65615;47.378;19.344;2023-03-01T06:38:24;101165.41;;;4.50;81.14
76687;BME280;65615;47.378;19.344;2023-03-01T06:42:29;101175.41;;;4.43;80.16
76687;BME280;65615;47.378;19.344;2023-03-01T06:46:32;101175.78;;;4.51;80.43
76687;BME280;65615;47.378;19.344;2023-03-01T06:50:35;101185.50;;;4.49;80.14
76687;BME280;65615;47.378;19.344;2023-03-01T06:54:38;101192.56;;;4.75;79.52
76687;BME280;65615;47.378;19.344;2023-03-01T06:58:42;101190.88;;;4.74;79.86
76687;BME280;65615;47.378;19.344;2023-03-01T07:02:50;101199.19;;;5.07;78.60
76687;BME280;65615;47.378;19.344;2023-03-01T07:07:01;101195.44;;;5.11;77.56
76687;BME280;65615;47.378;19.344;2023-03-01T07:11:15;101186.88;;;5.22;77.08
76687;BME280;65615;47.378;19.344;2023-03-01T07:15:20;101185.84;;;5.25;77.09
76687;BME280;65615;47.378;19.344;2023-03-01T07:19:24;101189.06;;;5.55;76.12
76687;BME280;65615;47.378;19.344;2023-03-01T07:23:28;101194.72;;;5.74;74.02
76687;BME280;65615;47.378;19.344;2023-03-01T07:27:39;101193.94;;;5.86;73.61
76687;BME280;65615;47.378;19.344;2023-03-01T07:31:42;101189.97;;;5.93;73.30
76687;BME280;65615;47.378;19.344;2023-03-01T07:35:59;101190.78;;;6.06;72.21
76687;BME280;65615;47.378;19.344;2023-03-01T07:40:16;101193.28;;;6.08;72.00
76687;BME280;65615;47.378;19.344;2023-03-01T07:44:35;101193.47;;;6.42;71.66
76687;BME280;65615;47.378;19.344;2023-03-01T07:48:43;101179.09;;;6.71;69.69
76687;BME280;65615;47.378;19.344;2023-03-01T07:53:13;101178.28;;;6.71;68.54
76687;BME280;65615;47.378;19.344;2023-03-01T07:57:23;101174.09;;;6.68;67.03
76687;BME280;65615;47.378;19.344;2023-03-01T08:01:27;101182.81;;;6.93;67.76
76687;BME280;65615;47.378;19.344;2023-03-01T08:06:00;101172.81;;;6.61;66.73
76687;BME280;65615;47.378;19.344;2023-03-01T08:10:28;101176.75;;;6.79;67.41
76687;BME280;65615;47.378;19.344;2023-03-01T08:14:54;101169.97;;;7.01;67.32
76687;BME280;65615;47.378;19.344;2023-03-01T08:18:57;101169.50;;;7.07;65.65
76687;BME280;65615;47.378;19.344;2023-03-01T08:23:44;101166.16;;;7.05;65.90
76687;BME280;65615;47.378;19.344;2023-03-01T08:27:54;101162.19;;;7.34;66.12
76687;BME280;65615;47.378;19.344;2023-03-01T08:31:57;101158.59;;;7.24;65.17
76687;BME280;65615;47.378;19.344;2023-03-01T08:36:08;101159.63;;;7.45;64.04
76687;BME280;65615;47.378;19.344;2023-03-01T08:40:19;101160.47;;;7.45;63.82
76687;BME280;65615;47.378;19.344;2023-03-01T08:44:23;101162.13;;;7.46;63.29
76687;BME280;65615;47.378;19.344;2023-03-01T08:48:29;101151.50;;;7.48;62.25
76687;BME280;65615;47.378;19.344;2023-03-01T08:52:37;101148.09;;;7.69;62.39
76687;BME280;65615;47.378;19.344;2023-03-01T08:57:01;101150.81;;;7.68;62.76
76687;BME280;65615;47.378;19.344;2023-03-01T09:01:13;101145.09;;;7.63;61.49
76687;BME280;65615;47.378;19.344;2023-03-01T09:05:53;101127.91;;;7.92;62.39
76687;BME280;65615;47.378;19.344;2023-03-01T09:10:12;101125.50;;;8.00;61.25
76687;BME280;65615;47.378;19.344;2023-03-01T09:14:31;101120.25;;;8.44;60.38
76687;BME280;65615;47.378;19.344;2023-03-01T09:18:35;101120.81;;;9.22;59.08
76687;BME280;65615;47.378;19.344;2023-03-01T09:22:39;101114.97;;;9.39;57.00
76687;BME280;65615;47.378;19.344;2023-03-01T09:26:42;101122.97;;;9.79;55.11
76687;BME280;65615;47.378;19.344;2023-03-01T09:30:45;101109.44;;;9.93;53.94
76687;BME280;65615;47.378;19.344;2023-03-01T09:34:56;101097.91;;;10.24;53.20
76687;BME280;65615;47.378;19.344;2023-03-01T09:39:09;101093.25;;;9.77;54.48
76687;BME280;65615;47.378;19.344;2023-03-01T09:47:32;101088.34;;;10.43;53.25
76687;BME280;65615;47.378;19.344;2023-03-01T09:51:41;101081.41;;;10.42;54.67
76687;BME280;65615;47.378;19.344;2023-03-01T10:04:51;101075.84;;;11.31;49.52
76687;BME280;65615;47.378;19.344;2023-03-01T10:09:00;101066.25;;;12.13;48.36
76687;BME280;65615;47.378;19.344;2023-03-01T10:13:23;101060.28;;;12.38;47.23
76687;BME280;65615;47.378;19.344;2023-03-01T10:17:47;101057.13;;;12.87;46.74
76687;BME280;65615;47.378;19.344;2023-03-01T10:21:53;101060.06;;;13.45;44.23
76687;BME280;65615;47.378;19.344;2023-03-01T10:26:30;101047.78;;;14.03;42.44
76687;BME280;65615;47.378;19.344;2023-03-01T10:30:40;101044.13;;;14.54;41.40
76687;BME280;65615;47.378;19.344;2023-03-01T10:34:59;101041.25;;;13.90;42.04
76687;BME280;65615;47.378;19.344;2023-03-01T10:39:30;101036.16;;;14.54;40.97
76687;BME280;65615;47.378;19.344;2023-03-01T10:43:55;101032.69;;;15.18;39.78
76687;BME280;65615;47.378;19.344;2023-03-01T10:53:01;101022.53;;;14.65;40.78
76687;BME280;65615;47.378;19.344;2023-03-01T10:57:10;101003.91;;;15.21;39.90
76687;BME280;65615;47.378;19.344;2023-03-01T11:01:35;101001.75;;;15.88;38.80
76687;BME280;65615;47.378;19.344;2023-03-01T11:09:58;100996.53;;;16.78;37.18
76687;BME280;65615;47.378;19.344;2023-03-01T11:14:18;100982.66;;;17.35;35.75
76687;BME280;65615;47.378;19.344;2023-03-01T11:18:30;100974.50;;;16.62;37.24
76687;BME280;65615;47.378;19.344;2023-03-01T11:22:54;100982.44;;;17.22;35.88
76687;BME280;65615;47.378;19.344;2023-03-01T11:27:06;100973.28;;;17.39;36.87
76687;BME280;65615;47.378;19.344;2023-03-01T11:31:24;100963.19;;;17.49;36.21
76687;BME280;65615;47.378;19.344;2023-03-01T11:35:42;100971.50;;;16.79;38.10
76687;BME280;65615;47.378;19.344;2023-03-01T11:40:29;100959.03;;;16.94;36.77
76687;BME280;65615;47.378;19.344;2023-03-01T11:44:55;100952.28;;;16.69;37.52
76687;BME280;65615;47.378;19.344;2023-03-01T11:58:27;100939.44;;;18.67;36.75
76687;BME280;65615;47.378;19.344;2023-03-01T12:29:33;100911.81;;;20.17;34.00
76687;BME280;65615;47.378;19.344;2023-03-01T12:38:42;100901.94;;;17.83;37.34
76687;BME280;65615;47.378;19.344;2023-03-01T12:43:41;100890.50;;;17.89;37.93
76687;BME280;65615;47.378;19.344;2023-03-01T12:52:28;100883.50;;;19.95;34.35
76687;BME280;65615;47.378;19.344;2023-03-01T12:56:35;100875.88;;;19.04;35.73
76687;BME280;65615;47.378;19.344;2023-03-01T13:10:20;100873.81;;;19.40;34.70
76687;BME280;65615;47.378;19.344;2023-03-01T13:14:44;100871.97;;;18.79;35.04
76687;BME280;65615;47.378;19.344;2023-03-01T13:18:47;100864.50;;;19.36;35.33
76687;BME280;65615;47.378;19.344;2023-03-01T13:27:25;100861.91;;;21.58;30.61
76687;BME280;65615;47.378;19.344;2023-03-01T13:31:57;100855.69;;;20.15;32.60
76687;BME280;65615;47.378;19.344;2023-03-01T13:37:13;100856.31;;;19.44;33.84
76687;BME280;65615;47.378;19.344;2023-03-01T13:45:53;100842.22;;;21.64;30.84
76687;BME280;65615;47.378;19.344;2023-03-01T13:50:01;100833.75;;;19.79;32.65
76687;BME280;65615;47.378;19.344;2023-03-01T13:54:10;100831.28;;;19.24;34.79
76687;BME280;65615;47.378;19.344;2023-03-01T13:58:28;100821.91;;;19.07;33.77
76687;BME280;65615;47.378;19.344;2023-03-01T14:02:32;100817.31;;;18.39;35.78
76687;BME280;65615;47.378;19.344;2023-03-01T14:06:37;100804.34;;;18.15;36.80
76687;BME280;65615;47.378;19.344;2023-03-01T14:10:54;100801.97;;;18.26;35.80
76687;BME280;65615;47.378;19.344;2023-03-01T14:15:18;100801.72;;;19.11;34.88
76687;BME280;65615;47.378;19.344;2023-03-01T14:19:26;100800.44;;;19.41;34.34
76687;BME280;65615;47.378;19.344;2023-03-01T14:23:39;100783.41;;;18.18;35.61
76687;BME280;65615;47.378;19.344;2023-03-01T14:27:52;100784.25;;;20.14;33.24
76687;BME280;65615;47.378;19.344;2023-03-01T14:32:09;100775.56;;;19.86;33.81
76687;BME280;65615;47.378;19.344;2023-03-01T14:36:12;100776.63;;;19.12;34.09
76687;BME280;65615;47.378;19.344;2023-03-01T14:40:26;100769.03;;;20.21;32.63
76687;BME280;65615;47.378;19.344;2023-03-01T14:44:30;100765.19;;;19.37;33.85
76687;BME280;65615;47.378;19.344;2023-03-01T14:48:38;100756.16;;;19.52;33.67
76687;BME280;65615;47.378;19.344;2023-03-01T14:52:44;100765.53;;;18.46;34.49
76687;BME280;65615;47.378;19.344;2023-03-01T14:56:48;100758.06;;;18.14;36.29
76687;BME280;65615;47.378;19.344;2023-03-01T15:00:58;100760.66;;;18.01;36.76
76687;BME280;65615;47.378;19.344;2023-03-01T15:05:03;100752.19;;;18.25;36.76
76687;BME280;65615;47.378;19.344;2023-03-01T15:09:14;100759.13;;;17.71;37.16
76687;BME280;65615;47.378;19.344;2023-03-01T15:13:23;100749.34;;;18.06;36.57
76687;BME280;65615;47.378;19.344;2023-03-01T15:17:34;100748.63;;;16.83;39.37
76687;BME280;65615;47.378;19.344;2023-03-01T15:21:38;100750.06;;;16.13;40.62
76687;BME280;65615;47.378;19.344;2023-03-01T15:25:44;100743.75;;;16.43;40.64
76687;BME280;65615;47.378;19.344;2023-03-01T15:29:49;100752.69;;;15.76;41.13
76687;BME280;65615;47.378;19.344;2023-03-01T15:33:52;100761.56;;;15.46;42.46
76687;BME280;65615;47.378;19.344;2023-03-01T15:42:58;100755.97;;;15.32;42.86
76687;BME280;65615;47.378;19.344;2023-03-01T15:47:04;100755.06;;;14.87;43.31
76687;BME280;65615;47.378;19.344;2023-03-01T15:51:11;100742.06;;;14.37;44.13
76687;BME280;65615;47.378;19.344;2023-03-01T15:55:20;100748.41;;;13.96;45.61
76687;BME280;65615;47.378;19.344;2023-03-01T15:59:23;100750.06;;;13.48;46.96
76687;BME280;65615;47.378;19.344;2023-03-01T16:03:26;100752.28;;;13.11;48.58
